Terminal Aerodrome Forecast
Issued by NWS Detroit/Pontiac, MI

Current Version | Previous Version | Text Only | Print | Product List | Glossary On
Versions: 1 2 3 4 5 6 7 8 9 10 11 12 13 14 15 16 17 18 19 20 21
000
FTUS43 KDTX 231130
TAFFNT
TAF
KFNT 231130Z 2312/2412 26014KT P6SM BKN022
     FM231300 30006KT P6SM SCT025
     FM231600 34006KT P6SM SCT028
     FM232200 02006KT P6SM SCT024 BKN150
     FM240300 04008KT P6SM BKN022 OVC050
     FM240700 06010KT 4SM -SHRA BR BKN008 OVC018=

USA.gov is the U.S. government's official web portal to all federal, state and local government web resources and services.